createdAt,value
2024-01-15T00:00:41.771Z,9.68
2024-01-15T00:03:09.302Z,10.48
2024-01-15T00:05:36.955Z,8.32
2024-01-15T00:08:04.262Z,7.30
2024-01-15T00:10:31.386Z,6.57
2024-01-15T00:12:58.566Z,6.20
2024-01-15T00:15:26.412Z,6.28
2024-01-15T00:17:53.669Z,6.07
2024-01-15T00:20:20.831Z,6.05
2024-01-15T00:22:47.968Z,4.75
2024-01-15T00:25:15.317Z,4.80
2024-01-15T00:27:42.503Z,4.75
2024-01-15T00:30:10.887Z,5.45
2024-01-15T00:32:38.248Z,5.00
2024-01-15T00:35:06.209Z,5.53
2024-01-15T00:37:33.434Z,6.40
2024-01-15T00:40:00.771Z,5.70
2024-01-15T00:42:28.107Z,4.90
2024-01-15T00:44:55.662Z,6.53
2024-01-15T00:47:22.977Z,7.65
2024-01-15T00:49:50.291Z,7.43
2024-01-15T00:52:17.485Z,7.57
2024-01-15T00:54:44.580Z,7.88
2024-01-15T00:57:11.744Z,8.27
2024-01-15T00:59:39.151Z,8.50
2024-01-15T01:02:06.362Z,9.57
2024-01-15T01:04:33.513Z,7.70
2024-01-15T01:07:00.828Z,7.00
2024-01-15T01:09:30.504Z,7.10
2024-01-15T01:11:58.021Z,7.15
2024-01-15T01:14:25.160Z,6.82
2024-01-15T01:16:52.374Z,6.95
2024-01-15T01:19:19.812Z,7.45
2024-01-15T01:21:47.233Z,7.63
2024-01-15T01:24:14.419Z,8.48
2024-01-15T01:26:41.651Z,8.15
2024-01-15T01:29:08.847Z,8.05
2024-01-15T01:31:36.413Z,7.47
2024-01-15T01:34:03.761Z,8.00
2024-01-15T01:36:33.084Z,8.02
2024-01-15T01:39:00.390Z,7.25
2024-01-15T01:41:27.572Z,7.75
2024-01-15T01:43:54.823Z,7.70
2024-01-15T01:46:22.145Z,7.68
2024-01-15T01:48:49.850Z,8.70
2024-01-15T01:51:17.301Z,8.70
2024-01-15T01:53:46.719Z,7.25
2024-01-15T01:56:14.843Z,8.35
2024-01-15T01:58:42.228Z,8.05
2024-01-15T02:01:09.983Z,7.43
2024-01-15T02:03:37.592Z,7.05
2024-01-15T02:06:05.399Z,6.90
2024-01-15T02:08:33.020Z,6.20
2024-01-15T02:11:00.171Z,6.45
2024-01-15T02:13:27.447Z,6.68
2024-01-15T02:15:54.674Z,7.43
2024-01-15T02:18:22.270Z,7.20
2024-01-15T02:20:49.606Z,8.02
2024-01-15T02:23:17.517Z,7.57
2024-01-15T02:25:46.868Z,8.30
2024-01-15T02:28:19.106Z,6.47
2024-01-15T02:30:47.091Z,6.43
2024-01-15T02:33:14.868Z,7.28
2024-01-15T02:35:42.379Z,7.55
2024-01-15T02:38:09.681Z,7.90
2024-01-15T02:40:37.959Z,8.23
2024-01-15T02:43:05.598Z,7.97
2024-01-15T02:45:33.016Z,7.60
2024-01-15T02:48:00.250Z,9.10
2024-01-15T02:50:27.584Z,8.43
2024-01-15T02:52:54.892Z,7.03
2024-01-15T02:55:22.242Z,7.97
2024-01-15T02:57:49.458Z,9.18
2024-01-15T03:00:16.938Z,8.35
2024-01-15T03:02:48.520Z,7.95
2024-01-15T03:05:16.538Z,7.55
2024-01-15T03:07:44.824Z,11.05
2024-01-15T03:10:12.066Z,12.77
2024-01-15T03:12:39.253Z,9.05
2024-01-15T03:15:06.827Z,10.32
2024-01-15T03:17:34.293Z,11.95
2024-01-15T03:20:03.959Z,12.18
2024-01-15T03:22:31.244Z,13.45
2024-01-15T03:24:58.381Z,10.13
2024-01-15T03:27:25.571Z,9.48
2024-01-15T03:29:52.934Z,9.35
2024-01-15T03:32:20.918Z,10.85
2024-01-15T03:34:49.038Z,11.10
2024-01-15T03:37:16.439Z,12.85
2024-01-15T03:39:43.653Z,11.48
2024-01-15T03:42:10.962Z,10.75
2024-01-15T03:44:38.055Z,10.15
2024-01-15T03:47:05.660Z,8.98
2024-01-15T03:49:32.943Z,9.07
2024-01-15T03:52:00.082Z,7.45
2024-01-15T03:54:28.274Z,5.95
2024-01-15T03:56:55.456Z,6.30
2024-01-15T03:59:22.761Z,4.95
2024-01-15T04:01:53.043Z,7.38
2024-01-15T04:04:20.543Z,5.35
2024-01-15T04:06:47.935Z,5.70
2024-01-15T04:09:15.507Z,5.07
2024-01-15T04:11:42.825Z,6.43
2024-01-15T04:14:09.911Z,6.80
2024-01-15T04:16:38.874Z,6.65
2024-01-15T04:19:06.192Z,9.15
2024-01-15T04:21:33.680Z,8.27
2024-01-15T04:24:01.052Z,7.88
2024-01-15T04:26:28.191Z,9.15
2024-01-15T04:28:55.351Z,9.32
2024-01-15T04:31:28.490Z,10.50
2024-01-15T04:33:56.113Z,9.25
2024-01-15T04:36:23.633Z,9.85
2024-01-15T04:38:50.840Z,9.65
2024-01-15T04:41:18.381Z,9.25
2024-01-15T04:43:45.818Z,10.50
2024-01-15T04:46:13.067Z,9.68
2024-01-15T04:48:40.325Z,9.57
2024-01-15T04:51:10.236Z,9.20
2024-01-15T04:53:37.587Z,8.88
2024-01-15T04:56:05.009Z,10.02
2024-01-15T04:58:32.151Z,9.43
2024-01-15T05:00:59.355Z,8.95
2024-01-15T05:03:26.645Z,9.40
2024-01-15T05:05:54.007Z,9.13
2024-01-15T05:08:21.227Z,9.13
2024-01-15T05:10:49.168Z,9.68
2024-01-15T05:13:16.497Z,8.80
2024-01-15T05:15:44.230Z,10.77
2024-01-15T05:18:11.780Z,9.27
2024-01-15T05:20:39.046Z,8.63
2024-01-15T05:23:06.201Z,9.38
2024-01-15T05:25:33.468Z,8.20
2024-01-15T05:28:01.144Z,8.15
2024-01-15T05:30:28.437Z,8.27
2024-01-15T05:32:55.784Z,7.85
2024-01-15T05:35:23.048Z,8.10
2024-01-15T05:37:50.305Z,7.90
2024-01-15T05:40:17.454Z,7.50
2024-01-15T05:42:44.609Z,7.85
2024-01-15T05:45:11.812Z,7.82
2024-01-15T05:47:39.145Z,6.75
2024-01-15T05:50:08.035Z,7.32
2024-01-15T05:52:35.461Z,8.23
2024-01-15T05:55:02.828Z,7.25
2024-01-15T05:57:30.059Z,7.82
2024-01-15T05:59:57.320Z,7.28
2024-01-15T06:02:24.500Z,7.10
2024-01-15T06:04:51.668Z,8.30
2024-01-15T06:07:18.909Z,9.75
2024-01-15T06:09:46.336Z,11.93
2024-01-15T06:12:13.772Z,9.68
2024-01-15T06:14:42.528Z,10.00
2024-01-15T06:17:09.842Z,10.68
2024-01-15T06:19:37.057Z,10.55
2024-01-15T06:22:04.495Z,8.50
2024-01-15T06:24:31.714Z,8.70
2024-01-15T06:26:58.849Z,9.27
2024-01-15T06:29:27.685Z,10.27
2024-01-15T06:31:55.406Z,11.52
2024-01-15T06:34:22.900Z,10.07
2024-01-15T06:36:50.244Z,9.68
2024-01-15T06:39:17.437Z,9.48
2024-01-15T06:41:45.010Z,10.27
2024-01-15T06:44:12.935Z,9.57
2024-01-15T06:46:46.493Z,9.45
2024-01-15T06:49:14.076Z,10.15
2024-01-15T06:51:41.891Z,10.20
2024-01-15T06:54:09.900Z,9.98
2024-01-15T06:56:37.067Z,9.68
2024-01-15T06:59:04.172Z,9.63
2024-01-15T07:01:31.521Z,10.90
2024-01-15T07:03:58.897Z,10.57
2024-01-15T07:06:26.259Z,9.80
2024-01-15T07:08:53.659Z,10.43
2024-01-15T07:11:21.013Z,11.25
2024-01-15T07:13:48.236Z,11.63
2024-01-15T07:16:29.671Z,16.08
2024-01-15T07:19:02.542Z,36.17
2024-01-15T07:21:29.785Z,30.58
2024-01-15T07:23:56.969Z,30.90
2024-01-15T07:26:24.174Z,21.08
2024-01-15T07:28:51.403Z,13.25
2024-01-15T07:31:19.147Z,7.63
2024-01-15T07:33:47.710Z,8.48
2024-01-15T07:36:15.074Z,7.38
2024-01-15T07:38:42.205Z,5.65
2024-01-15T07:41:09.446Z,7.10
2024-01-15T07:43:36.623Z,6.25
2024-01-15T07:46:04.094Z,7.70
2024-01-15T07:48:31.703Z,7.28
2024-01-15T07:50:58.909Z,7.05
2024-01-15T07:53:26.111Z,7.47
2024-01-15T07:55:53.338Z,7.50
2024-01-15T07:58:20.461Z,7.55
2024-01-15T08:00:47.757Z,7.65
2024-01-15T08:03:16.671Z,7.40
2024-01-15T08:05:44.031Z,7.50
2024-01-15T08:08:11.207Z,7.88
2024-01-15T08:10:38.407Z,8.18
2024-01-15T08:13:05.502Z,7.32
2024-01-15T08:15:32.784Z,8.85
2024-01-15T08:18:00.722Z,8.63
2024-01-15T08:20:28.155Z,8.50
2024-01-15T08:22:55.357Z,7.70
2024-01-15T08:25:22.531Z,9.02
2024-01-15T08:27:50.113Z,8.75
2024-01-15T08:30:17.667Z,7.47
2024-01-15T08:32:44.950Z,8.77
2024-01-15T08:35:12.862Z,7.65
2024-01-15T08:37:40.481Z,8.27
2024-01-15T08:40:08.334Z,7.75
2024-01-15T08:42:35.627Z,7.47
2024-01-15T08:45:03.034Z,7.60
2024-01-15T08:47:30.288Z,7.75
2024-01-15T08:49:57.520Z,6.88
2024-01-15T08:52:24.697Z,7.70
2024-01-15T08:54:52.240Z,7.70
2024-01-15T08:57:19.530Z,9.80
2024-01-15T08:59:46.626Z,10.30
2024-01-15T09:02:14.000Z,10.15
2024-01-15T09:04:42.335Z,9.65
2024-01-15T09:07:09.769Z,10.15
2024-01-15T09:09:37.896Z,8.63
2024-01-15T09:12:05.400Z,8.73
2024-01-15T09:14:36.786Z,10.73
2024-01-15T09:17:06.589Z,9.77
2024-01-15T09:19:34.146Z,9.18
2024-01-15T09:22:01.505Z,7.40
2024-01-15T09:24:29.604Z,7.55
2024-01-15T09:26:58.362Z,7.75
2024-01-15T09:29:25.668Z,6.07
2024-01-15T09:31:53.618Z,5.38
2024-01-15T09:34:21.267Z,6.20
2024-01-15T09:36:50.300Z,5.57
2024-01-15T09:39:17.925Z,5.07
2024-01-15T09:41:45.339Z,5.45
2024-01-15T09:44:13.549Z,5.03
2024-01-15T09:46:41.358Z,5.47
2024-01-15T09:49:08.726Z,5.65
2024-01-15T09:51:37.802Z,6.95
2024-01-15T09:54:05.415Z,7.07
2024-01-15T09:56:32.910Z,7.40
2024-01-15T09:59:01.242Z,6.93
2024-01-15T10:01:29.656Z,6.40
2024-01-15T10:03:57.104Z,6.22
2024-01-15T10:06:24.760Z,6.45
2024-01-15T10:08:52.862Z,6.68
2024-01-15T10:11:21.051Z,5.85
2024-01-15T10:13:53.724Z,5.07
2024-01-15T10:16:26.480Z,5.55
2024-01-15T10:18:54.850Z,4.57
2024-01-15T10:21:23.198Z,5.30
2024-01-15T10:23:51.693Z,5.07
2024-01-15T10:26:19.922Z,5.07
2024-01-15T10:28:54.224Z,5.55
2024-01-15T10:31:26.192Z,5.95
2024-01-15T10:33:55.522Z,5.40
2024-01-15T10:36:24.324Z,5.38
2024-01-15T10:38:51.789Z,5.97
2024-01-15T10:41:18.921Z,5.85
2024-01-15T10:43:46.337Z,5.35
2024-01-15T10:46:13.980Z,5.63
2024-01-15T10:48:41.322Z,6.53
2024-01-15T10:51:12.131Z,6.22
2024-01-15T10:53:43.241Z,6.95
2024-01-15T10:56:11.516Z,6.97
2024-01-15T10:58:40.888Z,6.97
2024-01-15T11:01:08.494Z,6.10
2024-01-15T11:03:35.953Z,6.68
2024-01-15T11:06:04.792Z,6.32
2024-01-15T11:08:32.827Z,5.85
2024-01-15T11:11:00.121Z,5.45
2024-01-15T11:13:33.184Z,5.85
2024-01-15T11:16:05.747Z,6.20
2024-01-15T11:18:41.525Z,5.97
2024-01-15T11:21:17.759Z,5.70
2024-01-15T11:23:54.021Z,5.35
2024-01-15T11:26:35.342Z,5.75
2024-01-15T11:29:04.898Z,4.90
2024-01-15T11:31:52.281Z,4.60
2024-01-15T11:34:20.426Z,5.88
2024-01-15T11:36:47.637Z,5.32
2024-01-15T11:39:33.747Z,4.40
2024-01-15T11:42:05.223Z,5.60
2024-01-15T11:44:32.648Z,5.00
2024-01-15T11:47:05.174Z,4.93
2024-01-15T11:49:50.726Z,5.47
2024-01-15T11:52:24.932Z,4.90
2024-01-15T11:55:17.903Z,5.10
2024-01-15T11:57:51.175Z,5.13
2024-01-15T12:00:19.315Z,6.47
2024-01-15T12:02:47.957Z,5.38
2024-01-15T12:05:17.928Z,4.88
2024-01-15T12:07:47.145Z,4.47
2024-01-15T12:10:18.545Z,5.47
2024-01-15T12:13:02.216Z,5.30
2024-01-15T12:15:31.187Z,5.32
2024-01-15T12:18:00.193Z,5.10
2024-01-15T12:20:36.983Z,4.60
2024-01-15T12:23:08.965Z,6.03
2024-01-15T12:25:37.094Z,5.20
2024-01-15T12:28:04.699Z,4.72
2024-01-15T12:30:35.730Z,5.15
2024-01-15T12:33:07.912Z,5.30
2024-01-15T12:35:35.862Z,5.68
2024-01-15T12:38:06.556Z,4.72
2024-01-15T12:40:36.930Z,4.43
2024-01-15T12:43:07.070Z,4.63
2024-01-15T12:45:34.477Z,5.80
2024-01-15T12:48:02.238Z,5.25
2024-01-15T12:50:29.460Z,5.13
2024-01-15T12:52:56.823Z,5.93
2024-01-15T12:55:23.987Z,5.72
2024-01-15T12:57:54.036Z,6.47
2024-01-15T13:00:22.004Z,6.03
2024-01-15T13:02:51.084Z,6.03
2024-01-15T13:05:19.306Z,5.78
2024-01-15T13:07:46.709Z,6.40
2024-01-15T13:10:14.085Z,6.03
2024-01-15T13:12:42.762Z,6.28
2024-01-15T13:15:14.913Z,5.18
2024-01-15T13:17:44.493Z,6.07
2024-01-15T13:20:14.053Z,6.20
2024-01-15T13:22:45.443Z,6.25
2024-01-15T13:25:13.144Z,4.95
2024-01-15T13:27:41.544Z,5.30
2024-01-15T13:30:10.077Z,5.43
2024-01-15T13:32:37.577Z,5.53
2024-01-15T13:35:08.232Z,5.65
2024-01-15T13:37:35.952Z,5.93
2024-01-15T13:40:04.934Z,5.15
2024-01-15T13:42:32.288Z,4.10
2024-01-15T13:44:59.707Z,5.20
2024-01-15T13:47:26.895Z,5.03
2024-01-15T13:49:54.111Z,4.28
2024-01-15T13:52:21.253Z,4.57
2024-01-15T13:54:50.570Z,4.63
2024-01-15T13:57:20.887Z,3.70
2024-01-15T13:59:48.927Z,4.97
2024-01-15T14:02:19.750Z,4.65
2024-01-15T14:04:50.163Z,3.75
2024-01-15T14:07:18.040Z,3.72
2024-01-15T14:09:45.413Z,4.18
2024-01-15T14:12:13.426Z,4.68
2024-01-15T14:14:41.607Z,4.43
2024-01-15T14:17:08.967Z,4.32
2024-01-15T14:19:37.021Z,4.40
2024-01-15T14:22:05.021Z,4.50
2024-01-15T14:24:32.292Z,4.70
2024-01-15T14:26:59.929Z,5.03
2024-01-15T14:29:28.255Z,5.28
2024-01-15T14:31:55.667Z,5.55
2024-01-15T14:34:25.497Z,4.93
2024-01-15T14:36:56.482Z,6.28
2024-01-15T14:42:21.500Z,5.55
2024-01-15T14:44:48.623Z,6.38
2024-01-15T14:47:15.706Z,6.90
2024-01-15T14:49:42.938Z,6.22
2024-01-15T14:52:10.174Z,7.32
2024-01-15T14:54:37.369Z,7.82
2024-01-15T14:57:04.856Z,5.78
2024-01-15T14:59:32.081Z,6.05
2024-01-15T15:01:59.281Z,6.18
2024-01-15T15:04:29.885Z,6.28
2024-01-15T15:06:58.303Z,6.97
2024-01-15T15:09:25.730Z,5.85
2024-01-15T15:11:53.358Z,5.90
2024-01-15T15:14:20.508Z,6.50
2024-01-15T15:16:50.509Z,5.03
2024-01-15T15:19:19.085Z,5.60
2024-01-15T15:21:46.478Z,6.50
2024-01-15T15:24:14.004Z,5.50
2024-01-15T15:26:41.287Z,4.45
2024-01-15T15:29:09.221Z,5.43
2024-01-15T15:31:36.528Z,5.18
2024-01-15T15:34:04.158Z,5.40
2024-01-15T15:36:32.163Z,5.88
2024-01-15T15:38:59.899Z,5.45
2024-01-15T15:41:30.096Z,5.65
2024-01-15T15:43:57.261Z,5.20
2024-01-15T15:46:24.499Z,5.30
2024-01-15T15:48:51.935Z,5.40
2024-01-15T15:51:19.260Z,4.88
2024-01-15T15:53:46.455Z,5.13
2024-01-15T15:56:13.634Z,5.22
2024-01-15T15:58:41.361Z,4.43
2024-01-15T16:01:08.598Z,4.30
2024-01-15T16:03:35.831Z,4.65
2024-01-15T16:06:03.158Z,4.30
2024-01-15T16:08:30.343Z,4.60
2024-01-15T16:10:57.516Z,4.07
2024-01-15T16:13:24.739Z,5.50
2024-01-15T16:15:51.907Z,6.10
2024-01-15T16:23:21.584Z,4.05
2024-01-15T16:23:36.406Z,6.03
2024-01-15T16:24:21.699Z,5.05
2024-01-15T16:26:55.949Z,5.35
2024-01-15T16:29:24.204Z,4.78
2024-01-15T16:31:51.314Z,5.30
2024-01-15T16:34:18.493Z,6.22
2024-01-15T16:36:45.716Z,6.43
2024-01-15T16:39:12.948Z,6.25
2024-01-15T16:41:40.583Z,5.95
2024-01-15T16:44:07.876Z,6.38
2024-01-15T16:46:35.054Z,8.10
2024-01-15T16:49:03.426Z,8.00
2024-01-15T16:51:30.795Z,8.48
2024-01-15T16:53:58.697Z,9.50
2024-01-15T16:56:26.008Z,9.57
2024-01-15T16:58:54.368Z,9.27
2024-01-15T17:01:22.288Z,8.85
2024-01-15T17:03:49.444Z,7.70
2024-01-15T17:06:18.340Z,8.38
2024-01-15T17:08:45.486Z,9.32
2024-01-15T17:11:12.720Z,9.38
2024-01-15T17:13:41.045Z,9.43
2024-01-15T17:16:08.409Z,10.07
2024-01-15T17:18:35.634Z,9.60
2024-01-15T17:21:02.826Z,10.25
2024-01-15T17:23:29.992Z,9.88
2024-01-15T17:25:57.338Z,8.63
2024-01-15T17:28:25.635Z,9.32
2024-01-15T17:30:52.909Z,10.00
2024-01-15T17:33:20.876Z,8.80
2024-01-15T17:35:57.530Z,9.75
2024-01-15T17:38:25.794Z,9.00
2024-01-15T17:40:53.082Z,8.55
2024-01-15T17:43:21.554Z,8.43
2024-01-15T17:45:49.865Z,8.60
2024-01-15T17:48:17.332Z,7.28
2024-01-15T17:50:44.912Z,7.97
2024-01-15T17:53:12.585Z,7.78
2024-01-15T17:55:39.774Z,8.18
2024-01-15T17:58:07.278Z,8.75
2024-01-15T18:00:34.806Z,6.63
2024-01-15T18:03:02.168Z,7.50
2024-01-15T18:05:29.523Z,7.93
2024-01-15T18:07:56.957Z,8.80
2024-01-15T18:10:24.164Z,6.63
2024-01-15T18:12:51.427Z,8.90
2024-01-15T18:15:18.820Z,8.25
2024-01-15T18:17:46.308Z,9.77
2024-01-15T18:20:15.046Z,10.55
2024-01-15T18:22:42.329Z,9.98
2024-01-15T18:25:10.441Z,8.93
2024-01-15T18:27:37.685Z,9.90
2024-01-15T18:30:05.187Z,10.05
2024-01-15T18:32:32.503Z,10.93
2024-01-15T18:34:59.892Z,10.45
2024-01-15T18:37:29.024Z,9.90
2024-01-15T18:39:56.259Z,10.05
2024-01-15T18:42:23.753Z,9.88
2024-01-15T18:44:51.317Z,10.73
2024-01-15T18:47:18.829Z,11.38
2024-01-15T18:49:48.535Z,9.13
2024-01-15T18:52:17.715Z,10.88
2024-01-15T18:54:44.977Z,11.32
2024-01-15T18:57:12.236Z,9.68
2024-01-15T18:59:41.412Z,9.23
2024-01-15T19:02:08.712Z,10.43
2024-01-15T19:04:36.178Z,10.73
2024-01-15T19:07:05.933Z,11.15
2024-01-15T19:09:33.285Z,10.60
2024-01-15T19:12:00.513Z,10.38
2024-01-15T19:14:27.985Z,10.98
2024-01-15T19:16:55.384Z,10.88
2024-01-15T19:19:22.593Z,10.43
2024-01-15T19:21:51.284Z,11.80
2024-01-15T19:24:19.738Z,9.82
2024-01-15T19:26:46.945Z,10.63
2024-01-15T19:29:14.372Z,10.75
2024-01-15T19:31:42.124Z,11.02
2024-01-15T19:34:09.838Z,12.23
2024-01-15T19:36:37.072Z,11.88
2024-01-15T19:39:04.368Z,9.82
2024-01-15T19:41:31.664Z,8.82
2024-01-15T19:43:58.920Z,9.50
2024-01-15T19:46:26.576Z,10.25
2024-01-15T19:48:54.838Z,9.98
2024-01-15T19:51:22.136Z,9.55
2024-01-15T19:53:49.352Z,9.88
2024-01-15T19:56:18.945Z,9.73
2024-01-15T19:58:46.294Z,10.20
2024-01-15T20:01:13.642Z,9.80
2024-01-15T20:03:42.523Z,9.85
2024-01-15T20:06:14.222Z,9.23
2024-01-15T20:08:46.117Z,9.55
2024-01-15T20:11:14.151Z,8.70
2024-01-15T20:13:43.047Z,8.70
2024-01-15T20:16:13.601Z,9.32
2024-01-15T20:18:42.566Z,7.95
2024-01-15T20:21:09.908Z,8.82
2024-01-15T20:23:46.628Z,8.25
2024-01-15T20:26:22.251Z,8.03
2024-01-15T20:28:49.657Z,9.52
2024-01-15T20:31:17.580Z,8.98
2024-01-15T20:33:44.755Z,9.15
2024-01-15T20:36:14.417Z,8.57
2024-01-15T20:38:41.761Z,8.07
2024-01-15T20:41:09.049Z,8.00
2024-01-15T20:43:36.524Z,6.80
2024-01-15T20:46:03.974Z,6.82
2024-01-15T20:48:32.581Z,7.93
2024-01-15T20:50:59.800Z,6.40
2024-01-15T20:53:27.135Z,6.68
2024-01-15T20:55:54.385Z,6.55
2024-01-15T20:58:27.514Z,6.05
2024-01-15T21:00:55.832Z,5.28
2024-01-15T21:03:23.927Z,6.15
2024-01-15T21:05:51.364Z,5.97
2024-01-15T21:08:18.843Z,6.28
2024-01-15T21:10:46.037Z,6.72
2024-01-15T21:13:13.279Z,5.78
2024-01-15T21:15:40.477Z,6.18
2024-01-15T21:18:07.855Z,4.70
2024-01-15T21:20:35.084Z,4.97
2024-01-15T21:23:03.569Z,4.13
2024-01-15T21:25:31.739Z,4.70
2024-01-15T21:27:58.903Z,5.07
2024-01-15T21:30:26.483Z,4.35
2024-01-15T21:32:53.812Z,4.82
2024-01-15T21:35:21.190Z,4.78
2024-01-15T21:37:48.384Z,3.45
2024-01-15T21:40:16.943Z,3.20
2024-01-15T21:42:44.979Z,4.20
2024-01-15T21:45:12.222Z,3.70
2024-01-15T21:47:39.622Z,3.80
2024-01-15T21:50:10.113Z,3.40
2024-01-15T21:52:37.806Z,3.50
2024-01-15T21:55:07.074Z,3.47
2024-01-15T21:57:34.476Z,4.47
2024-01-15T22:00:05.559Z,3.85
2024-01-15T22:05:10.387Z,4.18
2024-01-15T22:07:41.448Z,4.30
2024-01-15T22:10:09.401Z,3.50
2024-01-15T22:12:36.706Z,3.83
2024-01-15T22:15:04.246Z,3.17
2024-01-15T22:17:31.457Z,3.47
2024-01-15T22:19:58.789Z,3.50
2024-01-15T22:22:25.962Z,4.55
2024-01-15T22:24:53.111Z,4.20
2024-01-15T22:27:20.292Z,3.80
2024-01-15T22:29:51.908Z,3.80
2024-01-15T22:32:19.427Z,4.43
2024-01-15T22:34:46.800Z,4.13
2024-01-15T22:37:15.142Z,3.75
2024-01-15T22:39:42.339Z,3.25
2024-01-15T22:42:10.203Z,3.83
2024-01-15T22:44:37.548Z,4.68
2024-01-15T22:47:05.017Z,3.72
2024-01-15T22:49:32.324Z,4.32
2024-01-15T22:51:59.479Z,4.47
2024-01-15T22:54:27.072Z,3.75
2024-01-15T22:56:54.225Z,4.00
2024-01-15T22:59:23.395Z,4.43
2024-01-15T23:01:50.944Z,4.60
2024-01-15T23:04:19.039Z,4.00
2024-01-15T23:06:46.430Z,4.40
2024-01-15T23:09:13.594Z,4.93
2024-01-15T23:11:40.906Z,5.03
2024-01-15T23:14:08.193Z,4.07
2024-01-15T23:16:35.414Z,4.50
2024-01-15T23:19:02.603Z,4.35
2024-01-15T23:21:29.773Z,4.55
2024-01-15T23:23:56.918Z,4.25
2024-01-15T23:26:24.100Z,4.47
2024-01-15T23:28:51.331Z,4.38
2024-01-15T23:31:18.583Z,3.90
2024-01-15T23:33:45.769Z,4.75
2024-01-15T23:36:13.108Z,3.83
2024-01-15T23:38:40.528Z,4.35
2024-01-15T23:41:10.966Z,4.03
2024-01-15T23:43:39.809Z,3.47
2024-01-15T23:46:14.247Z,4.00
2024-01-15T23:48:42.734Z,3.17
2024-01-15T23:51:10.197Z,3.72
2024-01-15T23:53:37.426Z,3.90
2024-01-15T23:56:05.308Z,3.80
2024-01-15T23:58:32.528Z,4.28
